Time;durP1;ratioP1;P1;durP2;ratioP2;P2;SDS_P1;SDS_P2;PMS_P1;PMS_P2;Temp;Humidity;BMP_temperature;BMP_pressure;BME280_temperature;BME280_humidity;BME280_pressure;Samples;Min_cycle;Max_cycle;Signal;HPM_P1;HPM_P2
2024/02/06 00:01:26;;;;;;;12.07;5.70;;;17.10;39.00;;;;;;8428032;28;20032;-50
2024/02/06 00:05:27;;;;;;;10.23;5.47;;;17.00;38.60;;;;;;8427756;28;20067;-50
2024/02/06 00:09:27;;;;;;;12.83;6.10;;;17.00;38.00;;;;;;8427623;28;20030;-51
2024/02/06 00:13:28;;;;;;;9.67;6.43;;;17.00;38.10;;;;;;8427607;28;20055;-53
2024/02/06 00:17:28;;;;;;;8.33;4.73;;;17.20;38.00;;;;;;8427613;28;20051;-54
2024/02/06 00:21:29;;;;;;;8.53;5.37;;;17.60;37.40;;;;;;8427072;28;20512;-54
2024/02/06 00:25:30;;;;;;;5.40;4.33;;;17.90;36.90;;;;;;8427105;28;20028;-53
2024/02/06 00:29:30;;;;;;;8.00;4.03;;;18.10;36.60;;;;;;8427279;28;20031;-53
2024/02/06 00:33:31;;;;;;;7.83;4.50;;;18.20;36.40;;;;;;8426993;28;20054;-52
2024/02/06 00:37:32;;;;;;;10.67;4.67;;;18.30;36.40;;;;;;8408744;28;20289;-51
2024/02/06 00:41:35;;;;;;;;;;;18.30;36.50;;;;;;8427144;28;20501;-51
2024/02/06 00:45:36;;;;;;;6.55;4.22;;;18.20;37.40;;;;;;8426413;28;19973;-54
2024/02/06 00:49:36;;;;;;;8.67;4.20;;;18.10;38.00;;;;;;8426888;28;20111;-55
2024/02/06 00:53:37;;;;;;;7.67;3.73;;;18.20;37.80;;;;;;8426394;28;20040;-54
2024/02/06 00:57:39;;;;;;;7.43;3.97;;;18.20;37.40;;;;;;8426137;28;20047;-53
2024/02/06 01:01:39;;;;;;;6.78;4.35;;;18.30;37.20;;;;;;8426206;28;20317;-54
2024/02/06 01:05:40;;;;;;;7.53;4.20;;;18.40;37.00;;;;;;8426370;28;20112;-54
2024/02/06 01:09:41;;;;;;;5.97;3.60;;;18.40;36.80;;;;;;8426237;28;20035;-52
2024/02/06 01:13:41;;;;;;;5.45;3.17;;;18.50;36.80;;;;;;8425796;28;20806;-54
2024/02/06 01:17:42;;;;;;;6.87;3.60;;;18.50;36.70;;;;;;8425972;28;20059;-53
2024/02/06 01:21:43;;;;;;;6.55;3.22;;;18.50;36.60;;;;;;8425942;28;20490;-52
2024/02/06 01:25:43;;;;;;;5.67;3.50;;;18.60;36.70;;;;;;8408083;28;20036;-53
2024/02/06 01:29:44;;;;;;;5.43;3.00;;;18.60;36.80;;;;;;8425876;28;20286;-53
2024/02/06 01:33:45;;;;;;;4.50;3.20;;;18.40;37.80;;;;;;8425798;28;20366;-52
2024/02/06 01:37:45;;;;;;;5.77;3.43;;;18.30;38.20;;;;;;8407942;28;20391;-54
2024/02/06 01:41:47;;;;;;;4.90;3.42;;;18.30;38.00;;;;;;8425493;28;20768;-53
2024/02/06 01:45:50;;;;;;;;;;;18.40;37.70;;;;;;8425934;28;20031;-54
2024/02/06 01:49:50;;;;;;;6.85;3.65;;;18.50;37.50;;;;;;8425609;28;20323;-54
2024/02/06 01:53:51;;;;;;;7.57;3.25;;;18.50;37.30;;;;;;8425464;28;20111;-54
2024/02/06 01:57:52;;;;;;;4.30;2.78;;;18.50;37.10;;;;;;8425258;28;20036;-53
2024/02/06 02:01:55;;;;;;;6.22;3.25;;;18.60;37.10;;;;;;8425722;28;20089;-53
2024/02/06 02:05:56;;;;;;;5.63;3.42;;;18.60;37.00;;;;;;8425375;28;20043;-53
2024/02/06 02:09:57;;;;;;;7.28;3.63;;;18.60;36.90;;;;;;8429166;28;20481;-53
2024/02/06 02:13:57;;;;;;;5.88;3.42;;;18.60;36.90;;;;;;8431476;28;20040;-54
2024/02/06 02:17:58;;;;;;;4.65;3.00;;;18.60;37.00;;;;;;8431368;28;20085;-54
2024/02/06 02:21:59;;;;;;;7.10;3.05;;;18.50;38.20;;;;;;8430958;28;20085;-54
2024/02/06 02:26:00;;;;;;;5.03;3.40;;;18.40;38.40;;;;;;8431193;28;20033;-53
2024/02/06 02:30:01;;;;;;;4.55;3.22;;;18.40;38.10;;;;;;8430886;28;20304;-53
2024/02/06 02:34:02;;;;;;;4.18;3.05;;;18.50;37.90;;;;;;8431166;28;20025;-53
2024/02/06 02:38:02;;;;;;;3.28;2.50;;;18.50;37.60;;;;;;8430879;28;20028;-54
2024/02/06 02:42:04;;;;;;;6.53;3.08;;;18.60;37.40;;;;;;8430437;28;20036;-51
2024/02/06 02:46:04;;;;;;;;;;;18.60;37.30;;;;;;8430965;28;20032;-53
2024/02/06 02:50:05;;;;;;;7.23;2.70;;;18.60;37.20;;;;;;8430432;28;20400;-50
2024/02/06 02:54:06;;;;;;;5.78;2.88;;;18.60;37.10;;;;;;8412083;28;20032;-55
2024/02/06 02:58:07;;;;;;;6.13;2.80;;;18.70;37.00;;;;;;8429892;28;20051;-53
2024/02/06 03:02:07;;;;;;;5.73;3.43;;;18.70;37.00;;;;;;8429867;28;20055;-52
2024/02/06 03:06:08;;;;;;;6.43;2.88;;;18.60;37.20;;;;;;8429861;28;20313;-54
2024/02/06 03:10:09;;;;;;;3.65;2.67;;;18.50;38.40;;;;;;8429872;28;20052;-54
2024/02/06 03:14:09;;;;;;;4.63;2.60;;;18.40;38.50;;;;;;8429412;28;20035;-52
2024/02/06 03:18:10;;;;;;;4.13;2.70;;;18.50;38.20;;;;;;8429498;28;20386;-51
2024/02/06 03:22:11;;;;;;;3.95;2.38;;;18.50;37.90;;;;;;8429162;28;20290;-52
2024/02/06 03:26:11;;;;;;;4.35;3.10;;;18.50;37.60;;;;;;8429067;28;20038;-51
2024/02/06 03:30:13;;;;;;;4.93;2.70;;;18.60;37.50;;;;;;8429574;28;20028;-52
2024/02/06 03:34:13;;;;;;;4.40;2.30;;;18.60;37.40;;;;;;8428943;28;20058;-51
2024/02/06 03:38:14;;;;;;;3.55;2.50;;;18.60;37.30;;;;;;8428854;28;20036;-53
2024/02/06 03:42:15;;;;;;;3.38;2.65;;;18.60;37.30;;;;;;8428480;28;20071;-52
2024/02/06 03:46:16;;;;;;;4.40;2.42;;;18.60;37.20;;;;;;8428481;28;20035;-52
2024/02/06 03:50:16;;;;;;;5.63;3.00;;;18.70;37.10;;;;;;8428398;28;20028;-52
2024/02/06 03:54:17;;;;;;;5.05;2.88;;;18.70;37.60;;;;;;8428626;28;20393;-53
2024/02/06 03:58:18;;;;;;;4.25;2.40;;;18.50;38.50;;;;;;8427908;28;20579;-54
2024/02/06 04:02:21;;;;;;;4.32;2.40;;;18.40;38.60;;;;;;8409742;28;20040;-53
2024/02/06 04:06:21;;;;;;;4.10;2.35;;;18.50;38.20;;;;;;8428053;28;20024;-52
2024/02/06 04:10:22;;;;;;;4.13;2.53;;;18.50;38.00;;;;;;8427559;28;20059;-54
2024/02/06 04:14:23;;;;;;;4.13;2.35;;;18.50;37.80;;;;;;8427717;28;20039;-54
2024/02/06 04:18:23;;;;;;;4.68;2.92;;;18.60;37.60;;;;;;8409272;28;20032;-53
2024/02/06 04:22:24;;;;;;;5.17;3.07;;;18.60;37.40;;;;;;8427135;28;20047;-53
2024/02/06 04:26:25;;;;;;;3.47;2.35;;;18.60;37.40;;;;;;8427371;28;20756;-53
2024/02/06 04:30:25;;;;;;;4.03;2.40;;;18.60;37.30;;;;;;8427087;28;20039;-54
2024/02/06 04:34:27;;;;;;;4.67;2.83;;;18.70;37.20;;;;;;8426316;28;20282;-52
2024/02/06 04:38:28;;;;;;;4.03;2.75;;;18.70;37.10;;;;;;8426889;28;20321;-51
2024/02/06 04:42:29;;;;;;;4.32;2.25;;;18.60;37.80;;;;;;8426382;28;20157;-52
2024/02/06 04:46:30;;;;;;;4.13;2.20;;;18.50;38.60;;;;;;8426800;28;20028;-53
2024/02/06 04:50:30;;;;;;;7.05;2.40;;;18.50;38.60;;;;;;8426642;28;20278;-51
2024/02/06 04:54:31;;;;;;;3.90;1.92;;;18.50;38.20;;;;;;8426645;28;20058;-53
2024/02/06 04:58:32;;;;;;;2.78;2.25;;;18.50;37.90;;;;;;8426344;28;20436;-53
2024/02/06 05:02:32;;;;;;;5.18;2.03;;;18.50;37.70;;;;;;8426434;28;20032;-51
2024/02/06 05:06:33;;;;;;;4.82;2.42;;;18.60;37.60;;;;;;8426228;28;20454;-53
2024/02/06 05:10:34;;;;;;;3.10;2.28;;;18.60;37.50;;;;;;8426089;28;20048;-53
2024/02/06 05:14:36;;;;;;;2.63;2.00;;;18.60;37.40;;;;;;8426190;28;20115;-52
2024/02/06 05:18:37;;;;;;;3.60;2.30;;;18.70;37.30;;;;;;8426060;28;20081;-53
2024/02/06 05:22:38;;;;;;;4.35;2.17;;;18.70;37.20;;;;;;8425903;28;20032;-52
2024/02/06 05:26:39;;;;;;;2.90;2.50;;;18.70;37.00;;;;;;8425843;28;20024;-53
2024/02/06 05:30:40;;;;;;;2.65;1.98;;;18.80;37.80;;;;;;8407767;28;20493;-53
2024/02/06 05:34:40;;;;;;;3.30;2.37;;;18.60;38.30;;;;;;8426743;28;20051;-53
2024/02/06 05:38:41;;;;;;;3.60;2.13;;;18.60;38.30;;;;;;8425898;28;20289;-51
2024/02/06 05:42:42;;;;;;;3.13;1.90;;;18.70;38.00;;;;;;8425530;28;20356;-51
2024/02/06 05:46:42;;;;;;;2.80;2.43;;;18.70;37.60;;;;;;8431865;28;20293;-53
2024/02/06 05:50:43;;;;;;;2.37;2.17;;;18.80;37.50;;;;;;8432626;28;20274;-53
2024/02/06 05:54:44;;;;;;;2.37;2.03;;;18.80;37.40;;;;;;8432370;28;20647;-53
2024/02/06 05:58:44;;;;;;;2.92;2.00;;;18.80;37.20;;;;;;8431793;28;20286;-53
2024/02/06 06:02:45;;;;;;;2.85;1.83;;;18.80;37.10;;;;;;8431699;28;20040;-52
2024/02/06 06:06:46;;;;;;;2.75;2.08;;;18.80;37.50;;;;;;8414022;28;20028;-51
2024/02/06 06:10:46;;;;;;;3.30;1.60;;;18.80;36.90;;;;;;8431210;28;20055;-52
2024/02/06 06:14:47;;;;;;;2.83;1.60;;;18.80;36.90;;;;;;8431399;28;20043;-52
2024/02/06 06:18:48;;;;;;;3.05;2.22;;;18.80;37.90;;;;;;8431406;28;20036;-51
2024/02/06 06:22:48;;;;;;;2.63;1.73;;;18.60;38.50;;;;;;8431221;28;20482;-52
2024/02/06 06:26:49;;;;;;;2.70;1.90;;;18.60;38.40;;;;;;8430901;28;20302;-53
2024/02/06 06:30:50;;;;;;;2.83;2.00;;;18.60;38.00;;;;;;8412788;28;20451;-52
2024/02/06 06:34:51;;;;;;;;;;;18.70;37.70;;;;;;8431422;28;20034;-54
2024/02/06 06:38:54;;;;;;;2.00;1.80;;;18.70;37.50;;;;;;8430631;28;19908;-52
2024/02/06 06:42:54;;;;;;;1.85;1.65;;;18.80;37.30;;;;;;8412602;28;20678;-54
2024/02/06 06:46:55;;;;;;;3.22;2.05;;;18.80;37.20;;;;;;8412348;28;20600;-52
2024/02/06 06:50:56;;;;;;;3.83;2.33;;;18.80;37.10;;;;;;8430296;28;20051;-53
2024/02/06 06:54:57;;;;;;;2.00;1.50;;;18.80;37.00;;;;;;8429761;28;20639;-53
2024/02/06 06:58:58;;;;;;;3.78;2.13;;;18.90;37.00;;;;;;8430116;28;20286;-53
2024/02/06 07:02:58;;;;;;;2.53;1.75;;;18.90;36.90;;;;;;8429748;28;20560;-53
2024/02/06 07:06:59;;;;;;;2.72;2.00;;;18.80;37.70;;;;;;8429670;28;20473;-53
2024/02/06 07:11:00;;;;;;;2.25;1.52;;;18.70;38.30;;;;;;8429575;28;20052;-54
2024/02/06 07:15:00;;;;;;;2.97;1.85;;;18.70;38.10;;;;;;8429918;28;20032;-53
2024/02/06 07:19:01;;;;;;;2.35;1.80;;;18.70;37.80;;;;;;8429296;28;20032;-53
2024/02/06 07:23:02;;;;;;;2.40;1.73;;;18.80;37.60;;;;;;8429097;28;20028;-52
2024/02/06 07:27:03;;;;;;;1.95;1.55;;;18.80;37.40;;;;;;8428900;28;20103;-53
2024/02/06 07:31:04;;;;;;;3.40;1.50;;;18.90;37.30;;;;;;8429346;28;20032;-53
2024/02/06 07:35:05;;;;;;;2.72;1.85;;;18.90;37.20;;;;;;8429034;28;20036;-52
2024/02/06 07:39:06;;;;;;;2.50;1.65;;;18.90;37.00;;;;;;8428814;28;20044;-53
2024/02/06 07:43:07;;;;;;;2.20;1.60;;;18.90;37.00;;;;;;8428619;28;20024;-52
2024/02/06 07:47:08;;;;;;;2.13;1.40;;;18.90;37.00;;;;;;8410604;28;20031;-54
2024/02/06 07:51:09;;;;;;;;;;;18.90;36.90;;;;;;8428761;28;20331;-50
2024/02/06 07:55:10;;;;;;;2.47;1.63;;;18.80;37.80;;;;;;8428444;28;19908;-50
2024/02/06 07:59:12;;;;;;;2.30;1.40;;;18.70;38.40;;;;;;8427948;28;20043;-51
2024/02/06 08:03:13;;;;;;;3.00;2.33;;;18.70;38.20;;;;;;8428541;28;20040;-50
2024/02/06 08:07:13;;;;;;;2.67;1.70;;;18.80;37.90;;;;;;8427343;28;20485;-51
2024/02/06 08:11:14;;;;;;;2.40;1.80;;;18.80;37.60;;;;;;8409550;28;20052;-52
2024/02/06 08:15:15;;;;;;;2.20;1.70;;;18.80;37.40;;;;;;8427739;28;20118;-51
2024/02/06 08:19:15;;;;;;;2.38;1.70;;;18.80;37.30;;;;;;8409584;28;20047;-53
2024/02/06 08:23:16;;;;;;;1.77;1.50;;;18.90;37.20;;;;;;8393029;28;20382;-53
2024/02/06 08:27:17;;;;;;;1.83;1.63;;;18.90;37.00;;;;;;8409088;28;20055;-50
2024/02/06 08:31:22;;;;;;;1.42;1.27;;;18.90;36.90;;;;;;8427306;28;20031;-52
2024/02/06 08:35:22;;;;;;;3.03;1.58;;;18.90;36.90;;;;;;8427136;28;20039;-50
2024/02/06 08:39:26;;;;;;;1.50;1.40;;;18.90;36.80;;;;;;8426979;28;20036;-52
2024/02/06 08:43:27;;;;;;;2.17;1.45;;;18.80;37.90;;;;;;8426718;28;20036;-51
2024/02/06 08:47:28;;;;;;;1.90;1.48;;;18.80;38.40;;;;;;8426826;28;20035;-50
2024/02/06 08:51:30;;;;;;;1.70;1.50;;;18.70;38.00;;;;;;8426618;28;20032;-51
2024/02/06 08:55:31;;;;;;;2.22;1.40;;;18.80;37.80;;;;;;8426667;28;20032;-50
2024/02/06 08:59:32;;;;;;;2.92;1.90;;;18.80;37.50;;;;;;8426476;28;20053;-53
2024/02/06 09:03:33;;;;;;;1.83;1.48;;;18.80;37.30;;;;;;8426672;28;20032;-53
2024/02/06 09:07:34;;;;;;;2.25;1.55;;;18.90;37.30;;;;;;8427117;28;20024;-53
2024/02/06 09:11:34;;;;;;;1.47;1.27;;;18.90;37.10;;;;;;8426240;28;20240;-54
2024/02/06 09:15:35;;;;;;;1.83;1.30;;;18.90;37.00;;;;;;8426411;28;20767;-53
2024/02/06 09:19:36;;;;;;;1.45;1.35;;;18.90;36.90;;;;;;8413054;28;20057;-53
2024/02/06 09:23:37;;;;;;;1.90;1.55;;;18.90;36.80;;;;;;8432995;28;20053;-52
2024/02/06 09:27:42;;;;;;;2.53;1.55;;;18.90;36.90;;;;;;8433130;28;20408;-53
2024/02/06 09:31:43;;;;;;;1.23;1.10;;;18.80;37.90;;;;;;8433027;28;20081;-53
2024/02/06 09:35:44;;;;;;;1.73;1.38;;;18.70;38.30;;;;;;8432964;28;20032;-53
2024/02/06 09:39:45;;;;;;;1.92;1.58;;;18.80;38.00;;;;;;8432848;28;20111;-53
2024/02/06 09:43:45;;;;;;;1.50;1.40;;;18.80;37.70;;;;;;8432276;28;20036;-53
2024/02/06 09:47:46;;;;;;;1.90;1.63;;;18.80;37.50;;;;;;8432444;28;20036;-53
2024/02/06 09:51:47;;;;;;;1.60;1.20;;;18.90;37.40;;;;;;8432379;28;20058;-54
2024/02/06 09:55:48;;;;;;;2.30;1.35;;;18.90;37.20;;;;;;8432214;28;20081;-53
2024/02/06 09:59:52;;;;;;;1.83;1.30;;;18.90;37.10;;;;;;8432484;28;20355;-53
2024/02/06 10:03:54;;;;;;;1.60;1.27;;;18.90;37.00;;;;;;8431889;28;20428;-54
2024/02/06 10:07:56;;;;;;;2.65;1.67;;;18.90;37.00;;;;;;8431849;28;20531;-53
2024/02/06 10:11:59;;;;;;;1.80;1.40;;;18.90;36.80;;;;;;8431413;28;20044;-51
2024/02/06 10:15:59;;;;;;;1.25;1.13;;;19.00;36.90;;;;;;8431610;28;20111;-50
2024/02/06 10:20:10;;;;;;;1.65;1.33;;;18.80;38.00;;;;;;8431606;28;20051;-50
2024/02/06 10:24:11;;;;;;;1.37;1.20;;;18.80;38.30;;;;;;8431344;28;20694;-51
2024/02/06 10:28:25;;;;;;;2.28;1.23;;;18.70;38.00;;;;;;8431097;28;20068;-49
2024/02/06 10:32:35;;;;;;;1.50;1.30;;;18.80;37.70;;;;;;8430314;28;20063;-50
2024/02/06 10:36:36;;;;;;;1.43;1.30;;;18.90;37.50;;;;;;8430799;28;20032;-50
2024/02/06 10:40:41;;;;;;;1.80;1.20;;;18.90;37.30;;;;;;8430821;28;20020;-50
2024/02/06 10:44:41;;;;;;;2.22;1.30;;;18.90;37.30;;;;;;8430642;28;20044;-52
2024/02/06 10:48:42;;;;;;;1.45;1.30;;;18.90;37.10;;;;;;8430871;28;20028;-51
2024/02/06 10:52:43;;;;;;;1.23;1.10;;;18.90;37.00;;;;;;8430582;28;20043;-51
2024/02/06 10:57:11;;;;;;;1.50;1.25;;;18.90;36.90;;;;;;8430136;28;20040;-52
2024/02/06 11:01:14;;;;;;;1.67;1.35;;;18.90;36.80;;;;;;8430140;28;20478;-51
2024/02/06 11:05:26;;;;;;;1.05;0.90;;;18.90;37.60;;;;;;8429872;28;20120;-52
2024/02/06 11:09:27;;;;;;;1.27;1.00;;;18.80;38.20;;;;;;8429866;28;20114;-49
2024/02/06 11:13:35;;;;;;;2.03;1.38;;;18.70;38.20;;;;;;8429543;28;20545;-49
2024/02/06 11:17:38;;;;;;;1.27;1.17;;;18.80;37.90;;;;;;8429576;28;20117;-52
2024/02/06 11:21:42;;;;;;;1.10;0.90;;;18.80;37.60;;;;;;8429423;28;20032;-53
2024/02/06 11:25:46;;;;;;;1.38;1.20;;;18.90;37.40;;;;;;8411155;28;20032;-52
2024/02/06 11:29:48;;;;;;;2.33;1.30;;;18.90;37.30;;;;;;8411024;28;20077;-53
2024/02/06 11:33:49;;;;;;;0.80;0.80;;;18.90;37.10;;;;;;8429107;28;20104;-53
2024/02/06 11:37:53;;;;;;;1.38;1.10;;;18.90;37.00;;;;;;8429025;28;20063;-52
2024/02/06 11:42:01;;;;;;;1.45;1.00;;;18.90;36.90;;;;;;8428429;28;20047;-53
2024/02/06 11:46:01;;;;;;;1.10;1.00;;;18.90;36.90;;;;;;8428707;28;20020;-53
2024/02/06 11:50:09;;;;;;;1.05;0.90;;;18.90;36.80;;;;;;8428681;28;20105;-52
2024/02/06 11:54:13;;;;;;;1.17;0.98;;;18.90;37.70;;;;;;8428222;28;20035;-52
2024/02/06 11:58:15;;;;;;;1.08;0.98;;;18.80;38.30;;;;;;8428093;28;20388;-53
2024/02/06 12:02:17;;;;;;;1.15;0.80;;;18.70;38.20;;;;;;8428004;28;20102;-53
2024/02/06 12:06:21;;;;;;;1.38;0.90;;;18.80;37.90;;;;;;8427825;28;20093;-53
2024/02/06 12:10:30;;;;;;;1.42;1.33;;;18.80;37.60;;;;;;8427846;28;20073;-54
2024/02/06 12:14:31;;;;;;;1.55;1.38;;;18.80;37.40;;;;;;8427849;28;20020;-53
2024/02/06 12:18:32;;;;;;;1.50;1.13;;;18.90;37.30;;;;;;8427493;28;20032;-53
2024/02/06 12:22:33;;;;;;;1.20;1.10;;;18.90;37.10;;;;;;8427459;28;20058;-52
2024/02/06 12:26:34;;;;;;;1.55;1.20;;;18.90;37.00;;;;;;8427279;28;20066;-53
2024/02/06 12:30:35;;;;;;;1.00;0.88;;;18.90;37.00;;;;;;8409395;28;20063;-54
2024/02/06 12:34:36;;;;;;;1.23;0.93;;;18.90;36.90;;;;;;8428538;28;20032;-52
2024/02/06 12:38:36;;;;;;;1.85;1.20;;;18.90;36.80;;;;;;8426619;28;20625;-53
2024/02/06 12:42:37;;;;;;;1.27;1.17;;;18.80;37.90;;;;;;8408618;28;20028;-52
2024/02/06 12:46:38;;;;;;;0.98;0.90;;;18.80;38.40;;;;;;8426645;28;20081;-49
2024/02/06 12:50:41;;;;;;;1.23;0.82;;;18.80;38.10;;;;;;8426537;28;20024;-52
2024/02/06 12:54:41;;;;;;;1.10;1.00;;;18.80;37.80;;;;;;8426428;28;20111;-52
2024/02/06 12:58:44;;;;;;;0.88;0.88;;;18.80;37.60;;;;;;8426404;28;20699;-52
2024/02/06 13:02:45;;;;;;;1.08;0.98;;;18.90;37.70;;;;;;8426362;28;20486;-53
2024/02/06 13:06:46;;;;;;;1.15;1.02;;;18.90;37.20;;;;;;8426243;28;20385;-50
2024/02/06 13:10:47;;;;;;;0.82;0.82;;;18.90;37.10;;;;;;8426239;28;20055;-52
2024/02/06 13:14:50;;;;;;;1.38;0.98;;;18.90;37.10;;;;;;8426464;28;20047;-52
2024/02/06 13:18:58;;;;;;;0.77;0.77;;;18.90;36.90;;;;;;8426148;28;20046;-52
2024/02/06 13:23:09;;;;;;;0.85;0.77;;;18.90;36.80;;;;;;8425870;28;20036;-51
2024/02/06 13:27:10;;;;;;;1.15;1.00;;;19.00;36.80;;;;;;8426481;28;20024;-52
2024/02/06 13:31:11;;;;;;;1.13;1.00;;;18.90;38.10;;;;;;8425806;28;20082;-50
2024/02/06 13:35:12;;;;;;;1.08;0.90;;;18.80;38.30;;;;;;8425870;28;20636;-52
2024/02/06 13:39:12;;;;;;;1.20;1.02;;;18.80;38.00;;;;;;8425665;28;20382;-52
2024/02/06 13:43:13;;;;;;;1.38;0.95;;;18.80;37.70;;;;;;8407803;28;20809;-52
2024/02/06 13:47:14;;;;;;;0.88;0.85;;;18.80;37.40;;;;;;8425625;28;20031;-54
2024/02/06 13:51:14;;;;;;;0.70;0.70;;;18.90;37.30;;;;;;8425667;28;20029;-53
2024/02/06 13:55:15;;;;;;;0.70;0.70;;;18.90;37.20;;;;;;8425722;28;20420;-52
2024/02/06 13:59:16;;;;;;;1.60;1.13;;;18.90;37.00;;;;;;8425700;28;20028;-53
2024/02/06 14:03:18;;;;;;;1.17;0.93;;;18.90;37.00;;;;;;8425442;28;20032;-53
2024/02/06 14:07:19;;;;;;;1.02;0.82;;;18.90;36.90;;;;;;8430827;28;20081;-52
2024/02/06 14:11:20;;;;;;;1.00;0.82;;;18.90;36.80;;;;;;8431690;28;20055;-54
2024/02/06 14:15:21;;;;;;;1.02;0.93;;;18.90;36.90;;;;;;8432246;28;20485;-54
2024/02/06 14:19:22;;;;;;;1.08;0.98;;;18.80;38.00;;;;;;8431252;28;20063;-54
2024/02/06 14:23:23;;;;;;;0.93;0.75;;;18.70;38.30;;;;;;8413283;28;20413;-53
2024/02/06 14:27:23;;;;;;;1.33;0.90;;;18.70;38.00;;;;;;8431026;28;20519;-53
2024/02/06 14:31:26;;;;;;;1.17;0.95;;;18.80;37.70;;;;;;8431230;28;20473;-52
2024/02/06 14:35:27;;;;;;;0.73;0.73;;;18.80;37.50;;;;;;8431085;28;20039;-53
2024/02/06 14:39:28;;;;;;;1.95;1.20;;;18.90;37.30;;;;;;8430806;28;20024;-54
2024/02/06 14:43:29;;;;;;;0.82;0.80;;;18.90;37.10;;;;;;8430691;28;20028;-54
2024/02/06 14:47:29;;;;;;;0.70;0.70;;;18.90;37.00;;;;;;8430686;28;20031;-53
2024/02/06 14:51:30;;;;;;;0.75;0.75;;;18.90;36.90;;;;;;8430707;28;20051;-53
2024/02/06 14:55:31;;;;;;;0.80;0.80;;;19.00;36.90;;;;;;8430530;28;20032;-53
2024/02/06 14:59:31;;;;;;;0.80;0.80;;;18.90;36.80;;;;;;8412118;28;20044;-55
2024/02/06 15:03:35;;;;;;;1.00;0.90;;;18.90;37.10;;;;;;8430025;28;20131;-54
2024/02/06 15:07:37;;;;;;;0.88;0.75;;;18.80;38.10;;;;;;8412584;28;20734;-52
2024/02/06 15:11:39;;;;;;;1.52;1.00;;;18.70;38.30;;;;;;8429756;28;20115;-54
2024/02/06 15:15:39;;;;;;;0.70;0.70;;;18.70;37.90;;;;;;8429506;28;20059;-53
2024/02/06 15:19:45;;;;;;;0.88;0.80;;;18.80;37.60;;;;;;8430324;28;20051;-52
2024/02/06 15:23:46;;;;;;;0.65;0.65;;;18.80;37.40;;;;;;8429655;28;20385;-54
2024/02/06 15:27:47;;;;;;;1.30;0.77;;;18.90;37.20;;;;;;8429219;28;20032;-54
2024/02/06 15:31:48;;;;;;;0.85;0.63;;;18.90;37.10;;;;;;8411051;28;20036;-54
2024/02/06 15:35:48;;;;;;;0.80;0.80;;;18.90;37.00;;;;;;8429190;28;20028;-53
2024/02/06 15:39:51;;;;;;;0.60;0.60;;;18.90;36.90;;;;;;8411137;28;20109;-54
2024/02/06 15:43:51;;;;;;;1.13;0.90;;;18.90;36.90;;;;;;8428449;28;20027;-53
2024/02/06 15:47:52;;;;;;;0.90;0.70;;;19.00;36.80;;;;;;8429157;28;20070;-54
2024/02/06 15:51:53;;;;;;;0.98;0.90;;;18.90;37.40;;;;;;8428601;28;20032;-54
2024/02/06 15:55:56;;;;;;;0.70;0.63;;;18.80;38.10;;;;;;8428270;28;20116;-53
2024/02/06 15:59:57;;;;;;;0.70;0.70;;;18.80;38.20;;;;;;8428170;28;20477;-53
2024/02/06 16:03:58;;;;;;;0.60;0.60;;;18.80;37.90;;;;;;8428200;28;20500;-53
2024/02/06 16:07:58;;;;;;;0.90;0.90;;;18.80;37.60;;;;;;8428122;28;20335;-53
2024/02/06 16:11:59;;;;;;;0.80;0.80;;;18.90;37.40;;;;;;8427738;28;20889;-55
2024/02/06 16:16:00;;;;;;;0.73;0.70;;;18.90;37.20;;;;;;8409683;28;20424;-54
2024/02/06 16:20:01;;;;;;;0.80;0.63;;;18.90;37.10;;;;;;8427845;28;20036;-53
2024/02/06 16:24:03;;;;;;;0.82;0.80;;;18.90;37.00;;;;;;8427499;28;20046;-53
2024/02/06 16:28:05;;;;;;;0.70;0.70;;;18.90;36.80;;;;;;8426443;28;20035;-54
2024/02/06 16:32:05;;;;;;;1.02;0.77;;;19.00;36.80;;;;;;8409289;28;20032;-52
2024/02/06 16:36:11;;;;;;;0.57;0.57;;;19.00;36.80;;;;;;8427145;28;20065;-54
2024/02/06 16:40:13;;;;;;;0.73;0.60;;;18.90;37.30;;;;;;8427447;28;20032;-54
2024/02/06 16:44:14;;;;;;;0.60;0.60;;;18.80;38.10;;;;;;8409306;28;20039;-53
2024/02/06 16:48:15;;;;;;;0.73;0.60;;;18.80;38.10;;;;;;8426753;28;20032;-53
2024/02/06 16:52:16;;;;;;;0.50;0.50;;;18.80;37.80;;;;;;8426750;28;20686;-54
2024/02/06 16:56:16;;;;;;;0.60;0.60;;;18.80;37.60;;;;;;8426710;28;20514;-54
2024/02/06 17:00:17;;;;;;;0.65;0.60;;;18.90;37.30;;;;;;8426589;28;20071;-53
2024/02/06 17:04:18;;;;;;;0.70;0.70;;;18.90;37.20;;;;;;8426401;28;20024;-54
2024/02/06 17:08:19;;;;;;;0.75;0.68;;;18.90;37.00;;;;;;8426376;28;20035;-53
2024/02/06 17:12:20;;;;;;;;;;;19.00;37.00;;;;;;8426571;28;20048;-53
2024/02/06 17:16:21;;;;;;;0.67;0.67;;;19.00;36.90;;;;;;8426499;28;19950;-54
2024/02/06 17:20:22;;;;;;;0.50;0.50;;;19.00;36.90;;;;;;8426308;28;20523;-54
2024/02/06 17:24:22;;;;;;;0.57;0.57;;;19.00;36.80;;;;;;8425938;28;20294;-54
2024/02/06 17:28:23;;;;;;;0.82;0.77;;;18.90;37.50;;;;;;8426002;28;20050;-53
2024/02/06 17:32:24;;;;;;;2.33;0.60;;;18.80;38.40;;;;;;8415904;28;20032;-53
2024/02/06 17:36:26;;;;;;;1.17;0.70;;;18.70;38.50;;;;;;8418412;28;20033;-53
2024/02/06 17:40:26;;;;;;;2.72;0.77;;;18.80;38.40;;;;;;8413792;28;20051;-53
2024/02/06 17:44:28;;;;;;;0.93;0.80;;;18.90;38.20;;;;;;8397058;28;20568;-52
2024/02/06 17:48:28;;;;;;;;;;;18.90;38.10;;;;;;8408137;28;20278;-50
2024/02/06 17:52:29;;;;;;;0.83;0.60;;;19.00;38.00;;;;;;8420758;28;20014;-54
2024/02/06 17:56:30;;;;;;;1.05;0.60;;;19.10;38.10;;;;;;8422359;28;20062;-51
2024/02/06 18:00:30;;;;;;;6.45;0.65;;;19.00;38.20;;;;;;8417758;28;20048;-54
2024/02/06 18:04:31;;;;;;;2.92;0.70;;;19.00;38.00;;;;;;8413600;28;20032;-52
2024/02/06 18:08:32;;;;;;;4.03;0.82;;;19.10;38.70;;;;;;8418081;28;20367;-55
2024/02/06 18:12:33;;;;;;;4.32;0.93;;;19.10;39.10;;;;;;8419558;28;20120;-53
2024/02/06 18:16:58;;;;;;;7.50;1.85;;;19.00;40.30;;;;;;8412831;28;20036;-56
2024/02/06 18:20:59;;;;;;;2.00;1.13;;;19.00;40.90;;;;;;8421884;28;20503;-50
2024/02/06 18:25:00;;;;;;;2.08;0.90;;;19.10;40.70;;;;;;8416596;28;20024;-56
2024/02/06 18:29:01;;;;;;;4.15;0.82;;;19.20;40.50;;;;;;8423331;28;20058;-51
2024/02/06 18:33:03;;;;;;;4.05;0.90;;;19.30;40.40;;;;;;8418055;28;20036;-50
2024/02/06 18:37:04;;;;;;;5.55;1.67;;;19.30;40.30;;;;;;8421484;28;20048;-49
2024/02/06 18:41:05;;;;;;;7.43;1.50;;;19.40;41.40;;;;;;8421801;28;20083;-50
2024/02/06 18:45:06;;;;;;;14.43;3.10;;;19.60;41.80;;;;;;8417462;28;20031;-55
2024/02/06 18:49:08;;;;;;;7.07;2.08;;;19.60;41.50;;;;;;8412716;28;20158;-51
2024/02/06 18:53:08;;;;;;;14.38;2.38;;;19.70;41.60;;;;;;8423071;28;20106;-47
2024/02/06 18:57:09;;;;;;;10.93;2.47;;;19.70;41.30;;;;;;8417400;28;20039;-52
2024/02/06 19:01:10;;;;;;;8.70;2.58;;;19.60;41.60;;;;;;8423869;28;20040;-48
2024/02/06 19:05:10;;;;;;;10.40;2.97;;;19.70;42.80;;;;;;8423774;28;20028;-50
2024/02/06 19:09:11;;;;;;;13.00;2.88;;;19.80;43.70;;;;;;8418119;28;20055;-51
2024/02/06 19:13:12;;;;;;;14.23;3.17;;;19.80;43.10;;;;;;8407724;28;20493;-52
2024/02/06 19:17:13;;;;;;;9.70;2.22;;;19.90;42.80;;;;;;8426635;28;20470;-49
2024/02/06 19:21:13;;;;;;;10.23;3.45;;;19.90;42.60;;;;;;8438710;28;20083;-49
2024/02/06 19:25:16;;;;;;;9.57;3.60;;;19.90;42.50;;;;;;8439910;28;20039;-48
2024/02/06 19:29:17;;;;;;;14.07;2.85;;;19.90;42.60;;;;;;8434583;28;20088;-48
2024/02/06 19:33:18;;;;;;;4.57;1.85;;;19.90;42.10;;;;;;8413222;28;20043;-53
2024/02/06 19:37:19;;;;;;;3.80;1.42;;;19.60;40.30;;;;;;8420114;28;20027;-49
2024/02/06 19:41:20;;;;;;;2.95;1.30;;;19.30;39.00;;;;;;8390521;28;20055;-50
2024/02/06 19:45:21;;;;;;;3.38;1.70;;;19.10;38.40;;;;;;8422746;28;20066;-53
2024/02/06 19:49:21;;;;;;;2.45;1.60;;;19.30;38.70;;;;;;8424164;28;20028;-55
2024/02/06 19:53:22;;;;;;;4.10;2.10;;;19.40;39.70;;;;;;8422743;28;20054;-50
2024/02/06 19:57:24;;;;;;;3.20;2.15;;;19.40;40.40;;;;;;8413945;28;20039;-53
2024/02/06 20:01:25;;;;;;;4.90;2.03;;;19.60;40.20;;;;;;8415212;28;20046;-52
2024/02/06 20:05:26;;;;;;;6.07;2.30;;;19.70;40.00;;;;;;8420841;28;20589;-54
2024/02/06 20:09:27;;;;;;;3.78;2.58;;;19.70;39.80;;;;;;8418997;28;20917;-53
2024/02/06 20:13:28;;;;;;;;;;;19.70;39.90;;;;;;8408573;28;20136;-53
2024/02/06 20:17:29;;;;;;;6.20;2.80;;;19.80;40.20;;;;;;8425770;28;19946;-54
2024/02/06 20:21:30;;;;;;;7.40;2.78;;;20.00;40.40;;;;;;8434815;28;20035;-50
2024/02/06 20:25:31;;;;;;;9.85;3.20;;;20.00;40.50;;;;;;8420967;28;20111;-51
2024/02/06 20:29:31;;;;;;;10.32;3.50;;;20.10;41.00;;;;;;8425981;28;20110;-52
2024/02/06 20:33:32;;;;;;;8.98;3.42;;;20.10;40.90;;;;;;8430010;28;20032;-54
2024/02/06 20:37:33;;;;;;;12.30;3.63;;;20.20;41.40;;;;;;8429442;28;20024;-50
2024/02/06 20:41:37;;;;;;;13.35;4.22;;;20.00;42.40;;;;;;8418061;28;20063;-52
2024/02/06 20:45:38;;;;;;;13.70;4.18;;;19.90;43.20;;;;;;8425390;28;20039;-53
2024/02/06 20:49:41;;;;;;;10.45;4.13;;;20.10;43.00;;;;;;8425045;28;20032;-56
2024/02/06 20:53:45;;;;;;;10.88;3.55;;;20.10;42.60;;;;;;8420734;28;20027;-55
2024/02/06 20:57:45;;;;;;;11.77;4.28;;;20.10;42.60;;;;;;8410023;28;20035;-56